RKSO/OSN METAR and TAF weather

Enter ICAO airport designator
Station Type Date Time Source
RKSO METAR 2022/11/30 22:55 UTC NOAA

RKSO 302255Z AUTO 10004KT 9SM CLR M09/M15 A3053 RMK AO2 SLP343 T10931149 $


Station Type Date Time Source
RKSO Decoded METAR 2022/11/30 22:55 UTC NOAA

Osan Ab, Korea, South (RKSO) 37-06N 127-02E 12M
Nov 30, 2022 - 05:55 PM EST / 2022.11.30 2255 UTC
Wind: from the E (100 degrees) at 5 MPH (4 KT):0
Visibility: 9 mile(s):0
Sky conditions: clear
Temperature: 15.3 F (-9.3 C)
Windchill: 6 F (-14 C):1
Dew Point: 5.2 F (-14.9 C)
Relative Humidity: 63%
Pressure (altimeter): 30.53 in. Hg (1033 hPa)
ob: RKSO 302255Z AUTO 10004KT 9SM CLR M09/M15 A3053 RMK AO2 SLP343 T10931149
cycle: 23

Station Type Date Time Source
RKSO TAF 2022/11/30 21:06 UTC NOAA

TAF RKSO 302100Z 3021/0203 VRB06KT 9999 FEW025 QNH3052INS
BECMG 0100/0101 VRB06KT 9999 SCT025 QNH3050INS
BECMG 0107/0108 35006KT 6000 -SHSN BKN025 OVC040 610253 QNH3040INS
TEMPO 0110/0114 3200 -SHSN BKN015 610154
BECMG 0115/0116 VRB06KT 9999 NSW SCT030 QNH3045INS TXM01/0105Z TNM08/0121Z

Example: see airport list